Time;durP1;ratioP1;P1;durP2;ratioP2;P2;SDS_P1;SDS_P2;PMS_P1;PMS_P2;Temp;Humidity;BMP_temperature;BMP_pressure;BME280_temperature;BME280_humidity;BME280_pressure;Samples;Min_cycle;Max_cycle;Signal;HPM_P1;HPM_P2
2021/05/14 00:02:08;;;;;;;1.17;0.93;;;18.30;53.90;;;;;;5091013;28;20089;-69
2021/05/14 00:04:37;;;;;;;1.85;1.15;;;18.30;53.90;;;;;;5096751;28;20032;-68
2021/05/14 00:07:03;;;;;;;6.95;1.85;;;18.30;53.90;;;;;;5095870;28;20081;-69
2021/05/14 00:09:30;;;;;;;1.55;1.20;;;18.20;53.70;;;;;;5096327;28;20031;-69
2021/05/14 00:11:56;;;;;;;2.63;1.17;;;18.30;53.90;;;;;;5097057;28;20051;-70
2021/05/14 00:14:22;;;;;;;1.92;1.45;;;18.30;53.90;;;;;;5077466;28;20052;-69
2021/05/14 00:16:49;;;;;;;2.17;1.55;;;18.30;53.40;;;;;;5089588;28;20017;-69
2021/05/14 00:19:15;;;;;;;2.05;1.55;;;18.40;53.80;;;;;;5093920;28;20016;-68
2021/05/14 00:21:42;;;;;;;2.03;1.13;;;18.40;53.30;;;;;;5094403;28;20028;-69
2021/05/14 00:24:08;;;;;;;2.45;0.90;;;18.40;53.50;;;;;;5093511;28;20035;-69
2021/05/14 00:26:35;;;;;;;1.73;1.63;;;18.30;53.40;;;;;;5092643;28;20367;-71
2021/05/14 00:29:01;;;;;;;1.33;1.23;;;18.20;53.40;;;;;;5083001;28;20026;-70
2021/05/14 00:31:28;;;;;;;3.60;1.13;;;18.20;53.40;;;;;;5090108;28;20410;-69
2021/05/14 00:33:54;;;;;;;1.45;1.10;;;18.10;53.70;;;;;;5092022;28;20123;-69
2021/05/14 00:36:20;;;;;;;8.23;2.00;;;18.10;53.80;;;;;;5096083;28;20023;-68
2021/05/14 00:38:47;;;;;;;4.13;1.25;;;18.20;53.20;;;;;;5091507;28;20024;-68
2021/05/14 00:41:13;;;;;;;4.05;1.63;;;18.10;54.10;;;;;;5091997;28;20111;-68
2021/05/14 00:43:39;;;;;;;2.17;1.27;;;18.20;53.40;;;;;;5090710;28;20020;-68
2021/05/14 00:46:06;;;;;;;2.55;1.25;;;18.40;53.60;;;;;;5090791;28;20056;-69
2021/05/14 00:48:35;;;;;;;2.33;1.10;;;18.50;52.60;;;;;;5094012;28;20460;-69
2021/05/14 00:51:03;;;;;;;5.53;1.60;;;18.50;52.40;;;;;;5093765;28;20530;-68
2021/05/14 00:53:29;;;;;;;1.38;0.77;;;18.40;52.60;;;;;;5093195;28;20359;-68
2021/05/14 00:55:56;;;;;;;3.30;1.40;;;18.40;52.50;;;;;;5089621;28;20028;-68
2021/05/14 00:58:22;;;;;;;1.77;0.90;;;18.20;52.70;;;;;;5090005;28;20017;-68
2021/05/14 01:00:49;;;;;;;2.45;1.00;;;18.20;53.00;;;;;;5091304;28;20024;-68
2021/05/14 01:03:15;;;;;;;3.53;1.13;;;18.40;52.50;;;;;;5092241;28;20032;-68
2021/05/14 01:05:45;;;;;;;2.95;1.13;;;18.40;52.40;;;;;;5085508;28;20012;-67
2021/05/14 01:08:11;;;;;;;1.23;1.20;;;18.40;52.30;;;;;;5093527;28;20455;-68
2021/05/14 01:10:38;;;;;;;1.45;1.10;;;18.40;52.50;;;;;;5077923;28;20437;-69
2021/05/14 01:13:05;;;;;;;1.05;1.00;;;18.30;52.40;;;;;;5095248;28;20020;-68
2021/05/14 01:15:32;;;;;;;2.75;0.93;;;18.20;52.30;;;;;;5095355;28;20581;-68
2021/05/14 01:17:59;;;;;;;1.67;1.00;;;18.20;52.70;;;;;;5072039;28;20043;-68
2021/05/14 01:20:28;;;;;;;1.85;1.08;;;18.20;52.50;;;;;;5094026;28;20039;-68
2021/05/14 01:22:54;;;;;;;1.52;1.42;;;18.20;52.20;;;;;;5083342;28;20023;-68
2021/05/14 01:25:21;;;;;;;1.00;1.00;;;18.20;52.70;;;;;;5093667;28;20052;-68
2021/05/14 01:27:47;;;;;;;6.65;1.25;;;18.10;52.40;;;;;;5091701;28;20032;-68
2021/05/14 01:30:14;;;;;;;2.58;0.82;;;18.00;53.00;;;;;;5093548;28;20128;-68
2021/05/14 01:32:41;;;;;;;3.17;1.02;;;18.00;52.90;;;;;;5088688;28;20016;-68
2021/05/14 01:35:08;;;;;;;1.33;1.10;;;17.90;52.80;;;;;;5091051;28;20762;-68
2021/05/14 01:37:41;;;;;;;1.50;1.40;;;17.80;53.00;;;;;;5075485;28;20060;-68
2021/05/14 01:40:08;;;;;;;2.38;1.33;;;17.80;53.00;;;;;;5099476;28;20405;-68
2021/05/14 01:42:35;;;;;;;1.55;1.10;;;17.80;53.00;;;;;;5094728;28;20119;-69
2021/05/14 01:45:01;;;;;;;2.25;1.20;;;17.50;53.30;;;;;;5082535;28;20028;-68
2021/05/14 01:47:27;;;;;;;1.60;1.30;;;17.30;53.40;;;;;;5075453;28;20461;-69
2021/05/14 01:49:54;;;;;;;1.00;0.90;;;17.30;54.20;;;;;;5104117;28;20032;-68
2021/05/14 01:52:20;;;;;;;4.85;2.75;;;17.30;54.00;;;;;;5094775;28;20074;-69
2021/05/14 01:54:47;;;;;;;1.75;1.60;;;17.20;54.20;;;;;;5089952;28;20020;-68
2021/05/14 01:57:13;;;;;;;1.30;1.15;;;17.10;54.30;;;;;;5095121;28;20028;-69
2021/05/14 01:59:39;;;;;;;1.77;1.30;;;16.80;54.40;;;;;;5093166;28;20099;-69
2021/05/14 02:02:06;;;;;;;1.60;1.20;;;16.90;55.00;;;;;;5093337;28;20099;-69
2021/05/14 02:04:32;;;;;;;2.65;1.20;;;16.90;55.00;;;;;;5074979;28;20024;-69
2021/05/14 02:06:59;;;;;;;2.15;1.65;;;16.80;55.10;;;;;;5095655;28;20028;-70
2021/05/14 02:09:25;;;;;;;2.53;1.38;;;16.40;56.00;;;;;;5094123;28;20063;-69
2021/05/14 02:11:51;;;;;;;3.20;1.70;;;16.40;56.20;;;;;;5093678;28;20024;-68
2021/05/14 02:14:18;;;;;;;4.28;1.67;;;16.30;56.40;;;;;;5094131;28;20371;-69
2021/05/14 02:16:44;;;;;;;3.38;1.27;;;16.40;56.20;;;;;;5093208;28;20531;-70
2021/05/14 02:19:13;;;;;;;2.20;1.60;;;16.20;56.60;;;;;;5093623;28;20439;-69
2021/05/14 02:21:40;;;;;;;4.43;1.33;;;16.20;57.20;;;;;;5093462;28;20020;-69
2021/05/14 02:24:06;;;;;;;0.95;0.95;;;16.40;56.40;;;;;;5093358;28;20265;-69
2021/05/14 02:26:33;;;;;;;1.83;1.58;;;16.20;57.00;;;;;;5092299;28;20045;-69
2021/05/14 02:28:59;;;;;;;2.60;1.60;;;16.00;57.80;;;;;;5090131;28;20032;-69
2021/05/14 02:31:25;;;;;;;2.83;1.30;;;16.20;57.40;;;;;;5089308;28;20035;-69
2021/05/14 02:33:52;;;;;;;1.48;1.38;;;16.10;56.60;;;;;;5091328;28;20024;-69
2021/05/14 02:36:18;;;;;;;1.10;1.00;;;15.90;57.50;;;;;;5090738;28;20028;-69
2021/05/14 02:38:45;;;;;;;1.73;1.35;;;15.80;58.00;;;;;;5093515;28;20019;-69
2021/05/14 02:41:12;;;;;;;1.98;1.33;;;15.70;57.50;;;;;;5082558;28;20117;-69
2021/05/14 02:43:40;;;;;;;1.40;1.30;;;15.70;58.60;;;;;;5075315;28;20474;-69
2021/05/14 02:46:06;;;;;;;1.73;1.63;;;15.90;58.10;;;;;;5074551;28;20028;-69
2021/05/14 02:48:33;;;;;;;4.97;1.50;;;15.70;58.30;;;;;;5071674;28;20035;-69
2021/05/14 02:50:59;;;;;;;2.53;1.70;;;15.70;57.90;;;;;;5090573;28;20102;-70
2021/05/14 02:53:26;;;;;;;1.83;1.50;;;15.60;58.30;;;;;;5075426;28;20028;-69
2021/05/14 02:55:52;;;;;;;1.38;1.30;;;15.40;58.50;;;;;;5087111;28;20515;-69
2021/05/14 02:58:18;;;;;;;3.90;1.20;;;15.10;60.00;;;;;;5081120;28;20513;-69
2021/05/14 03:00:45;;;;;;;1.90;1.80;;;15.10;58.90;;;;;;5083536;28;20354;-69
2021/05/14 03:03:12;;;;;;;1.75;1.65;;;15.10;58.70;;;;;;5089570;28;20359;-69
2021/05/14 03:05:38;;;;;;;1.88;1.35;;;15.10;58.80;;;;;;5094410;28;20362;-69
2021/05/14 03:08:04;;;;;;;5.50;1.40;;;15.20;58.20;;;;;;5099358;28;20031;-70
2021/05/14 03:10:31;;;;;;;1.40;1.30;;;15.10;59.90;;;;;;5094638;28;20111;-69
2021/05/14 03:12:57;;;;;;;2.85;1.58;;;15.10;60.10;;;;;;5096596;28;20366;-69
2021/05/14 03:15:24;;;;;;;1.23;1.23;;;14.90;60.20;;;;;;5082066;28;20353;-70
2021/05/14 03:17:50;;;;;;;3.22;1.63;;;14.90;59.80;;;;;;5091590;28;20036;-69
2021/05/14 03:20:17;;;;;;;3.22;1.70;;;14.70;60.70;;;;;;5097652;28;20081;-69
2021/05/14 03:22:43;;;;;;;2.42;2.17;;;14.70;61.00;;;;;;5097517;28;20103;-69
2021/05/14 03:25:10;;;;;;;1.83;1.63;;;14.40;61.80;;;;;;5101347;28;20028;-69
2021/05/14 03:27:38;;;;;;;2.08;1.92;;;14.60;61.40;;;;;;5104695;28;20047;-69
2021/05/14 03:30:06;;;;;;;1.58;1.50;;;14.40;62.80;;;;;;5097329;28;20095;-69
2021/05/14 03:32:33;;;;;;;3.88;2.40;;;14.00;63.20;;;;;;5082352;28;20024;-68
2021/05/14 03:35:01;;;;;;;1.65;1.55;;;14.10;63.60;;;;;;5074426;28;20057;-69
2021/05/14 03:37:27;;;;;;;2.83;1.65;;;14.00;61.90;;;;;;5097211;28;20040;-69
2021/05/14 03:39:56;;;;;;;1.75;1.50;;;14.00;63.00;;;;;;5091023;28;20055;-69
2021/05/14 03:42:26;;;;;;;3.42;2.28;;;14.10;61.70;;;;;;5078208;28;20030;-69
2021/05/14 03:44:52;;;;;;;1.73;1.55;;;14.10;61.00;;;;;;5079351;28;20463;-69
2021/05/14 03:47:22;;;;;;;1.17;1.17;;;14.00;62.90;;;;;;5096276;28;20032;-69
2021/05/14 03:49:48;;;;;;;1.25;1.25;;;14.10;61.60;;;;;;5096465;28;20024;-69
2021/05/14 03:52:15;;;;;;;1.60;1.50;;;14.20;61.30;;;;;;5093038;28;20032;-69
2021/05/14 03:54:41;;;;;;;3.67;1.38;;;14.20;61.50;;;;;;5087233;28;20097;-69
2021/05/14 03:57:08;;;;;;;2.33;1.67;;;14.20;62.10;;;;;;5067681;28;20032;-69
2021/05/14 03:59:35;;;;;;;1.23;1.20;;;14.30;61.10;;;;;;5079813;28;20024;-70
2021/05/14 04:02:02;;;;;;;5.45;1.58;;;14.30;61.70;;;;;;5096589;28;20020;-69
2021/05/14 04:04:29;;;;;;;1.70;1.60;;;14.20;60.70;;;;;;5098370;28;20012;-69
2021/05/14 04:06:55;;;;;;;2.03;1.73;;;14.30;61.20;;;;;;5071272;28;20029;-69
2021/05/14 04:09:29;;;;;;;2.10;1.90;;;14.40;61.60;;;;;;5094485;28;20032;-69
2021/05/14 04:14:32;;;;;;;5.55;1.67;;;14.20;62.50;;;;;;5093368;28;20035;-70
2021/05/14 04:17:00;;;;;;;1.80;1.42;;;14.30;61.10;;;;;;5091390;28;20047;-69
2021/05/14 04:19:27;;;;;;;2.10;2.00;;;14.30;62.10;;;;;;5086913;28;20085;-69
2021/05/14 04:21:54;;;;;;;2.00;1.90;;;14.20;61.40;;;;;;5095771;28;20447;-69
2021/05/14 04:24:22;;;;;;;1.65;1.55;;;14.10;61.50;;;;;;5095116;28;20028;-69
2021/05/14 04:26:50;;;;;;;3.33;1.67;;;14.00;62.60;;;;;;5091306;28;20072;-69
2021/05/14 04:29:17;;;;;;;2.13;1.92;;;14.00;63.10;;;;;;5080717;28;20123;-69
2021/05/14 04:31:45;;;;;;;1.92;1.73;;;13.90;62.00;;;;;;5095387;28;20066;-69
2021/05/14 04:34:12;;;;;;;3.97;2.33;;;13.90;63.10;;;;;;5096399;28;20020;-69
2021/05/14 04:36:39;;;;;;;1.77;1.45;;;13.90;62.20;;;;;;5092200;28;20032;-70
2021/05/14 04:39:07;;;;;;;1.48;1.38;;;13.70;63.20;;;;;;5090648;28;20024;-69
2021/05/14 04:41:34;;;;;;;2.45;1.38;;;13.70;63.00;;;;;;5072736;28;20069;-69
2021/05/14 04:44:01;;;;;;;1.73;1.60;;;13.60;64.00;;;;;;5081886;28;20446;-69
2021/05/14 04:46:28;;;;;;;2.67;1.42;;;13.80;63.20;;;;;;5095948;28;20043;-70
2021/05/14 04:48:55;;;;;;;2.35;1.65;;;13.80;62.30;;;;;;5077366;28;20032;-69
2021/05/14 04:51:22;;;;;;;2.92;1.92;;;13.80;62.80;;;;;;5090493;28;20023;-69
2021/05/14 04:53:49;;;;;;;2.45;1.63;;;13.70;62.90;;;;;;5088470;28;20024;-69
2021/05/14 04:56:15;;;;;;;2.08;1.98;;;13.70;63.80;;;;;;5092637;28;20367;-69
2021/05/14 04:58:42;;;;;;;1.90;1.73;;;13.70;62.90;;;;;;5086070;28;20027;-69
2021/05/14 05:01:09;;;;;;;1.65;1.55;;;13.80;62.90;;;;;;5092123;28;20028;-68
2021/05/14 05:03:36;;;;;;;3.80;1.60;;;13.70;63.80;;;;;;5073597;28;20023;-69
2021/05/14 05:06:03;;;;;;;1.70;1.60;;;13.80;64.40;;;;;;5091663;28;20031;-69
2021/05/14 05:08:30;;;;;;;1.98;1.65;;;13.80;64.40;;;;;;5056751;28;20024;-70
2021/05/14 05:10:56;;;;;;;2.30;2.10;;;13.80;64.30;;;;;;5084776;28;20538;-69
2021/05/14 05:13:23;;;;;;;2.08;1.85;;;13.80;63.90;;;;;;5077041;28;20081;-69
2021/05/14 05:15:49;;;;;;;1.75;1.65;;;13.70;64.80;;;;;;5095235;28;20481;-69
2021/05/14 05:18:15;;;;;;;5.20;2.10;;;13.70;65.00;;;;;;5101631;28;20047;-69
2021/05/14 05:20:42;;;;;;;1.52;1.42;;;13.80;65.00;;;;;;5102793;28;20049;-69
2021/05/14 05:23:08;;;;;;;2.15;1.92;;;13.90;65.20;;;;;;5095651;28;20024;-69
2021/05/14 05:25:35;;;;;;;3.85;1.70;;;13.90;65.80;;;;;;5092689;28;20016;-69
2021/05/14 05:28:03;;;;;;;2.33;2.08;;;13.80;65.90;;;;;;5094362;28;20024;-69
2021/05/14 05:30:29;;;;;;;2.47;1.75;;;13.60;65.20;;;;;;5094392;28;20027;-69
2021/05/14 05:32:56;;;;;;;1.65;1.55;;;13.60;66.60;;;;;;5095397;28;20028;-69
2021/05/14 05:35:22;;;;;;;4.03;2.10;;;13.70;66.60;;;;;;5092625;28;20028;-68
2021/05/14 05:37:49;;;;;;;2.45;2.25;;;13.60;66.70;;;;;;5095012;28;20465;-69
2021/05/14 05:40:15;;;;;;;1.85;1.75;;;13.60;66.90;;;;;;5094117;28;20059;-69
2021/05/14 05:42:42;;;;;;;2.38;1.70;;;13.70;66.80;;;;;;5095506;28;20016;-69
2021/05/14 05:45:08;;;;;;;2.80;1.50;;;13.50;66.50;;;;;;5094322;28;20028;-69
2021/05/14 05:47:35;;;;;;;1.52;1.42;;;13.60;67.60;;;;;;5094876;28;20035;-69
2021/05/14 05:50:03;;;;;;;2.30;2.10;;;13.60;67.00;;;;;;5077616;28;20455;-68
2021/05/14 05:52:29;;;;;;;2.00;1.88;;;13.60;66.30;;;;;;5093611;28;20024;-68
2021/05/14 05:54:56;;;;;;;1.60;1.50;;;13.50;68.00;;;;;;5094815;28;20145;-69
2021/05/14 05:57:22;;;;;;;2.28;2.10;;;13.50;67.10;;;;;;5093122;28;20032;-68
2021/05/14 05:59:48;;;;;;;1.95;1.77;;;13.60;67.90;;;;;;5093679;28;20020;-69
2021/05/14 06:02:15;;;;;;;1.75;1.65;;;13.50;67.30;;;;;;5094142;28;20028;-69
2021/05/14 06:04:41;;;;;;;1.50;1.40;;;13.50;67.40;;;;;;5093255;28;20016;-69
2021/05/14 06:07:08;;;;;;;6.93;2.33;;;13.50;67.60;;;;;;5071957;28;20123;-69
2021/05/14 06:09:34;;;;;;;4.63;1.85;;;13.50;68.00;;;;;;5093249;28;20035;-69
2021/05/14 06:12:01;;;;;;;3.90;1.60;;;13.50;67.60;;;;;;5090163;28;20470;-69
2021/05/14 06:14:27;;;;;;;2.10;2.00;;;13.50;67.30;;;;;;5089889;28;20036;-69
2021/05/14 06:16:54;;;;;;;2.33;2.10;;;13.60;67.90;;;;;;5091942;28;20371;-69
2021/05/14 06:19:28;;;;;;;1.67;1.58;;;13.60;67.60;;;;;;5081143;28;20028;-69
2021/05/14 06:21:54;;;;;;;2.35;2.15;;;13.50;67.70;;;;;;5099786;28;20096;-69
2021/05/14 06:24:21;;;;;;;2.80;1.88;;;13.60;68.80;;;;;;5076440;28;20413;-69
2021/05/14 06:26:48;;;;;;;3.50;2.53;;;13.60;68.50;;;;;;5094218;28;20050;-69
2021/05/14 06:29:15;;;;;;;6.00;2.25;;;13.60;68.60;;;;;;5093491;28;20032;-69
2021/05/14 06:31:41;;;;;;;4.53;2.13;;;13.60;68.30;;;;;;5089722;28;20024;-69
2021/05/14 06:34:08;;;;;;;1.80;1.70;;;13.60;68.60;;;;;;5095939;28;20405;-69
2021/05/14 06:36:35;;;;;;;2.88;1.63;;;13.40;68.40;;;;;;5095701;28;20016;-69
2021/05/14 06:39:02;;;;;;;2.03;1.92;;;13.30;68.30;;;;;;5093975;28;20024;-68
2021/05/14 06:41:28;;;;;;;2.10;2.00;;;13.50;70.20;;;;;;5089056;28;20030;-68
2021/05/14 06:43:56;;;;;;;2.88;1.75;;;13.40;69.10;;;;;;5094300;28;20054;-69
2021/05/14 06:46:23;;;;;;;1.80;1.70;;;13.50;69.10;;;;;;5090976;28;20036;-68
2021/05/14 06:48:50;;;;;;;2.85;1.92;;;13.30;69.70;;;;;;5080940;28;20028;-69
2021/05/14 06:51:16;;;;;;;1.63;1.52;;;13.40;69.70;;;;;;5093553;28;20103;-69
2021/05/14 06:53:43;;;;;;;3.45;1.83;;;13.30;69.40;;;;;;5092893;28;20451;-69
2021/05/14 06:56:09;;;;;;;2.83;1.90;;;13.40;69.70;;;;;;5094617;28;20020;-69
2021/05/14 06:58:36;;;;;;;3.33;1.90;;;13.40;70.10;;;;;;5078239;28;20181;-69
2021/05/14 07:01:02;;;;;;;2.55;2.17;;;13.40;69.90;;;;;;5093576;28;20012;-69
2021/05/14 07:03:29;;;;;;;2.47;2.28;;;13.30;69.80;;;;;;5093402;28;20017;-69
2021/05/14 07:05:55;;;;;;;3.47;1.75;;;13.40;70.10;;;;;;5090972;28;20020;-69
2021/05/14 07:08:22;;;;;;;2.00;1.90;;;13.40;69.90;;;;;;5091864;28;20146;-68
2021/05/14 07:10:48;;;;;;;3.20;1.90;;;13.30;69.40;;;;;;5093977;28;20024;-69
2021/05/14 07:13:14;;;;;;;1.77;1.67;;;13.40;69.80;;;;;;5093078;28;20028;-69
2021/05/14 07:15:41;;;;;;;4.75;2.28;;;13.40;69.90;;;;;;5089203;28;20363;-69
2021/05/14 07:18:07;;;;;;;2.97;2.75;;;13.20;70.10;;;;;;5083005;28;20470;-69
2021/05/14 07:20:36;;;;;;;5.57;2.72;;;13.20;70.40;;;;;;5094406;28;20107;-69
2021/05/14 07:23:02;;;;;;;6.32;2.53;;;13.20;69.60;;;;;;5091117;28;20057;-69
2021/05/14 07:25:29;;;;;;;4.75;1.98;;;13.30;70.50;;;;;;5093066;28;20095;-70
2021/05/14 07:27:55;;;;;;;3.33;2.63;;;13.30;70.10;;;;;;5093866;28;20020;-69
2021/05/14 07:30:22;;;;;;;1.95;1.35;;;13.30;70.50;;;;;;5092236;28;20024;-69
2021/05/14 07:32:48;;;;;;;6.90;3.05;;;13.10;70.30;;;;;;5093198;28;20028;-69
2021/05/14 07:35:15;;;;;;;8.05;2.15;;;13.30;69.90;;;;;;5089757;28;20078;-70
2021/05/14 07:37:41;;;;;;;2.38;2.22;;;13.30;69.90;;;;;;5097182;28;20055;-68
2021/05/14 07:40:09;;;;;;;1.60;1.50;;;13.30;70.80;;;;;;5093017;28;20032;-69
2021/05/14 07:42:35;;;;;;;4.57;1.63;;;13.30;69.60;;;;;;5097473;28;20389;-69
2021/05/14 07:45:02;;;;;;;2.88;2.28;;;13.20;69.40;;;;;;5094073;28;20035;-69
2021/05/14 07:47:29;;;;;;;1.80;1.70;;;13.20;70.20;;;;;;5092786;28;20020;-69
2021/05/14 07:49:55;;;;;;;2.58;2.08;;;13.40;70.90;;;;;;5094580;28;20020;-68
2021/05/14 07:52:21;;;;;;;1.83;1.73;;;13.30;70.80;;;;;;5079132;28;20118;-69
2021/05/14 07:54:48;;;;;;;2.00;1.55;;;13.30;70.10;;;;;;5096766;28;20459;-69
2021/05/14 07:57:14;;;;;;;2.55;1.73;;;13.20;69.90;;;;;;5097208;28;20136;-69
2021/05/14 07:59:40;;;;;;;4.65;2.50;;;13.40;70.40;;;;;;5091201;28;20478;-68
2021/05/14 08:02:07;;;;;;;2.15;1.58;;;13.30;70.20;;;;;;5096656;28;20024;-69
2021/05/14 08:04:33;;;;;;;4.15;2.25;;;13.40;69.70;;;;;;5096796;28;20039;-69
2021/05/14 08:07:00;;;;;;;4.78;1.52;;;13.30;70.40;;;;;;5095074;28;20024;-68
2021/05/14 08:09:26;;;;;;;1.80;1.70;;;13.40;70.40;;;;;;5094320;28;20028;-69
2021/05/14 08:11:53;;;;;;;1.33;1.25;;;13.40;69.20;;;;;;5097090;28;20455;-69
2021/05/14 08:14:20;;;;;;;2.05;1.55;;;13.40;69.70;;;;;;5094973;28;20034;-69
2021/05/14 08:16:46;;;;;;;3.72;2.20;;;13.40;70.10;;;;;;5096476;28;20029;-69
2021/05/14 08:19:13;;;;;;;2.25;2.00;;;13.40;70.40;;;;;;5095670;28;20026;-69
2021/05/14 08:21:43;;;;;;;6.28;1.80;;;13.50;70.40;;;;;;5093413;28;20020;-69
2021/05/14 08:24:10;;;;;;;1.30;1.30;;;13.30;70.00;;;;;;5096173;28;20383;-69
2021/05/14 08:26:38;;;;;;;2.45;1.73;;;13.20;70.00;;;;;;5095791;28;20036;-69
2021/05/14 08:29:05;;;;;;;4.75;1.60;;;13.20;70.30;;;;;;5096754;28;20028;-69
2021/05/14 08:31:34;;;;;;;4.78;1.90;;;13.40;69.80;;;;;;5094913;28;20020;-69
2021/05/14 08:34:01;;;;;;;3.25;2.10;;;13.50;70.50;;;;;;5078836;28;20358;-69
2021/05/14 08:36:27;;;;;;;1.65;1.55;;;13.50;69.80;;;;;;5094189;28;20047;-69
2021/05/14 08:38:54;;;;;;;3.90;2.17;;;13.60;70.00;;;;;;5096134;28;20035;-69
2021/05/14 08:41:20;;;;;;;3.25;1.50;;;13.60;70.50;;;;;;5096373;28;20016;-69
2021/05/14 08:43:47;;;;;;;1.75;1.65;;;13.60;69.90;;;;;;5093166;28;20024;-69
2021/05/14 08:46:17;;;;;;;2.35;1.70;;;13.60;69.80;;;;;;5088848;28;20024;-69
2021/05/14 08:48:44;;;;;;;5.65;2.20;;;13.50;70.40;;;;;;5083670;28;20020;-69
2021/05/14 08:51:13;;;;;;;2.72;1.50;;;13.60;69.90;;;;;;5096650;28;20115;-69
2021/05/14 08:53:44;;;;;;;4.88;2.53;;;13.60;70.10;;;;;;5095368;28;20328;-69
2021/05/14 08:56:11;;;;;;;1.80;1.70;;;13.60;70.20;;;;;;5095530;28;20025;-69
2021/05/14 08:58:38;;;;;;;2.20;1.60;;;13.60;70.10;;;;;;5096407;28;20085;-69
2021/05/14 09:01:04;;;;;;;1.70;1.60;;;13.60;70.50;;;;;;5096272;28;20020;-69
2021/05/14 09:03:31;;;;;;;3.78;2.08;;;13.60;70.30;;;;;;5095608;28;20027;-69
2021/05/14 09:05:58;;;;;;;5.90;1.75;;;13.60;70.30;;;;;;5095141;28;20018;-69
2021/05/14 09:08:29;;;;;;;1.90;1.80;;;13.60;70.70;;;;;;5096283;28;20028;-69
2021/05/14 09:10:57;;;;;;;10.27;2.63;;;13.50;70.70;;;;;;5094188;28;20077;-69
2021/05/14 09:13:35;;;;;;;7.45;1.65;;;13.50;70.40;;;;;;5095970;28;20024;-68
2021/05/14 09:16:01;;;;;;;3.17;2.83;;;13.50;70.90;;;;;;5096982;28;20066;-69
2021/05/14 09:18:28;;;;;;;4.65;1.83;;;13.50;70.60;;;;;;5083879;28;20339;-69
2021/05/14 09:20:59;;;;;;;3.40;1.75;;;13.50;70.70;;;;;;5094294;28;20381;-69
2021/05/14 09:23:34;;;;;;;3.22;2.10;;;13.60;70.80;;;;;;5095733;28;20020;-69
2021/05/14 09:26:07;;;;;;;3.90;1.75;;;13.60;70.20;;;;;;5094716;28;20130;-69
2021/05/14 09:28:59;;;;;;;;;;;13.60;70.80;;;;;;5095285;28;20024;-68
2021/05/14 09:31:30;;;;;;;2.15;1.85;;;13.70;69.70;;;;;;5092605;28;19908;-69
2021/05/14 09:33:58;;;;;;;3.50;1.67;;;13.50;70.20;;;;;;5086072;28;20048;-69
2021/05/14 09:36:34;;;;;;;10.13;2.15;;;13.60;70.80;;;;;;5094668;28;20130;-69
2021/05/14 09:39:09;;;;;;;5.88;2.50;;;13.60;70.20;;;;;;5095202;28;20016;-69
2021/05/14 09:41:38;;;;;;;6.80;2.15;;;13.50;70.30;;;;;;5094940;28;20027;-69
2021/05/14 09:44:08;;;;;;;2.42;2.25;;;13.60;70.60;;;;;;5077536;28;20021;-69
2021/05/14 09:46:46;;;;;;;6.95;2.70;;;13.60;70.80;;;;;;5094547;28;20028;-69
2021/05/14 09:49:17;;;;;;;2.17;1.95;;;13.80;70.40;;;;;;5098070;28;20032;-69
2021/05/14 09:51:53;;;;;;;5.00;2.38;;;13.70;70.00;;;;;;5094359;28;20031;-69
2021/05/14 09:54:28;;;;;;;3.08;1.90;;;13.80;69.90;;;;;;5088009;28;20454;-69
2021/05/14 09:58:02;;;;;;;3.83;1.55;;;13.60;69.90;;;;;;5079585;28;20028;-69
2021/05/14 10:00:12;;;;;;;9.13;2.67;;;13.60;70.30;;;;;;5082637;28;20036;-69
2021/05/14 10:02:41;;;;;;;4.43;1.60;;;13.60;70.70;;;;;;5095241;28;20028;-69
2021/05/14 10:05:13;;;;;;;7.57;2.45;;;13.60;70.50;;;;;;5091318;28;20042;-68
2021/05/14 10:07:40;;;;;;;4.78;2.50;;;13.70;70.90;;;;;;5094436;28;20024;-69
2021/05/14 10:10:09;;;;;;;1.83;1.73;;;13.80;69.80;;;;;;5086491;28;20067;-69
2021/05/14 10:12:37;;;;;;;7.85;2.55;;;13.70;70.20;;;;;;5094852;28;20116;-69
2021/05/14 10:15:11;;;;;;;4.00;1.90;;;13.70;70.00;;;;;;5093264;28;20432;-70
2021/05/14 10:17:39;;;;;;;2.67;1.60;;;13.60;70.40;;;;;;5093950;28;20020;-69
2021/05/14 10:20:15;;;;;;;2.67;1.98;;;13.70;70.80;;;;;;5093983;28;20024;-69
2021/05/14 10:22:43;;;;;;;2.67;1.58;;;13.70;70.30;;;;;;5094508;28;20016;-69
2021/05/14 10:25:12;;;;;;;2.33;1.75;;;13.70;70.50;;;;;;5093967;28;20020;-70
2021/05/14 10:27:41;;;;;;;1.90;1.80;;;13.70;69.90;;;;;;5090842;28;20028;-69
2021/05/14 10:30:09;;;;;;;2.83;1.73;;;13.70;70.20;;;;;;5094117;28;20467;-69
2021/05/14 10:32:44;;;;;;;1.60;1.50;;;13.70;70.20;;;;;;5096757;28;20028;-68
2021/05/14 10:35:33;;;;;;;3.17;1.80;;;13.70;70.30;;;;;;5094212;28;20072;-69
2021/05/14 10:38:07;;;;;;;3.05;2.20;;;13.60;70.10;;;;;;5094395;28;20099;-69
2021/05/14 10:40:33;;;;;;;3.63;2.58;;;13.60;70.20;;;;;;5094137;28;20394;-69
2021/05/14 10:43:02;;;;;;;1.83;1.73;;;13.60;70.30;;;;;;5092921;28;20047;-69
2021/05/14 10:45:45;;;;;;;5.00;2.13;;;13.60;70.10;;;;;;5094948;28;20081;-69
2021/05/14 10:48:17;;;;;;;3.00;2.25;;;13.50;70.80;;;;;;5093834;28;20085;-69
2021/05/14 10:50:52;;;;;;;3.55;1.75;;;13.70;70.40;;;;;;5094341;28;20421;-68
2021/05/14 10:53:27;;;;;;;9.10;2.45;;;13.70;70.40;;;;;;5096165;28;20032;-69
2021/05/14 10:55:55;;;;;;;5.63;2.75;;;13.80;69.80;;;;;;5096048;28;20126;-70
2021/05/14 10:58:49;;;;;;;7.75;2.35;;;13.80;70.70;;;;;;5078779;28;20079;-70
2021/05/14 11:01:39;;;;;;;1.50;1.40;;;13.50;70.40;;;;;;5094287;28;20097;-68
2021/05/14 11:04:14;;;;;;;4.70;2.05;;;13.60;71.10;;;;;;5093904;28;20024;-69
2021/05/14 11:06:45;;;;;;;1.42;1.33;;;13.50;70.40;;;;;;5091884;28;20020;-69
2021/05/14 11:09:13;;;;;;;1.60;1.48;;;13.50;70.80;;;;;;5089273;28;20028;-68
2021/05/14 11:12:03;;;;;;;4.70;1.52;;;13.70;71.50;;;;;;5093463;28;20063;-69
2021/05/14 11:14:44;;;;;;;2.90;1.98;;;13.60;71.20;;;;;;5094562;28;21261;-69
2021/05/14 11:17:14;;;;;;;5.45;3.50;;;13.60;70.50;;;;;;5094535;28;20024;-68
2021/05/14 11:19:59;;;;;;;5.57;1.77;;;13.50;70.80;;;;;;5076757;28;20017;-69
2021/05/14 11:22:37;;;;;;;10.95;1.90;;;13.40;71.20;;;;;;5094264;28;20110;-69
2021/05/14 11:25:17;;;;;;;2.65;1.88;;;13.40;71.20;;;;;;5094981;28;20559;-69
2021/05/14 11:27:45;;;;;;;5.25;2.50;;;13.70;70.90;;;;;;5095937;28;20118;-68
2021/05/14 11:30:13;;;;;;;3.67;1.70;;;13.70;70.50;;;;;;5097988;28;20031;-69
2021/05/14 11:32:42;;;;;;;5.10;2.60;;;13.70;70.20;;;;;;5095573;28;20459;-69
2021/05/14 11:35:16;;;;;;;4.93;2.28;;;13.80;70.70;;;;;;5096880;28;20040;-69
2021/05/14 11:37:54;;;;;;;5.90;2.33;;;13.80;70.10;;;;;;5082067;28;20034;-69
2021/05/14 11:40:43;;;;;;;9.63;3.20;;;13.80;69.90;;;;;;5092095;28;20026;-68
2021/05/14 11:43:14;;;;;;;2.78;1.63;;;13.70;70.30;;;;;;5096604;28;20081;-68
2021/05/14 11:45:46;;;;;;;3.47;2.07;;;13.70;70.20;;;;;;5095025;28;20536;-69
2021/05/14 11:48:21;;;;;;;2.60;2.42;;;13.70;69.50;;;;;;5086938;28;20050;-69
2021/05/14 11:50:50;;;;;;;3.53;2.08;;;13.90;69.80;;;;;;5097505;28;20122;-69
2021/05/14 11:53:18;;;;;;;4.50;2.30;;;13.90;69.40;;;;;;5095862;28;20093;-69
2021/05/14 11:55:46;;;;;;;2.38;2.13;;;13.90;69.80;;;;;;5097576;28;20027;-69
2021/05/14 11:58:13;;;;;;;3.83;2.33;;;13.80;69.50;;;;;;5091395;28;20028;-69
2021/05/14 12:00:52;;;;;;;7.45;1.88;;;13.80;69.80;;;;;;5096621;28;20028;-69
2021/05/14 12:03:20;;;;;;;4.32;2.25;;;13.70;70.30;;;;;;5098157;28;20035;-70
2021/05/14 12:05:48;;;;;;;8.35;3.13;;;13.70;70.50;;;;;;5095064;28;20012;-69
2021/05/14 12:08:16;;;;;;;4.45;2.60;;;13.70;70.50;;;;;;5096699;28;20032;-69
2021/05/14 12:10:46;;;;;;;3.47;1.90;;;13.70;70.10;;;;;;5092454;28;20020;-69
2021/05/14 12:13:14;;;;;;;3.25;2.28;;;13.70;70.20;;;;;;5096112;28;20462;-69
2021/05/14 12:15:41;;;;;;;3.78;1.95;;;13.70;71.30;;;;;;5096242;28;20024;-69
2021/05/14 12:18:08;;;;;;;6.07;1.90;;;13.70;70.40;;;;;;5095977;28;20036;-69
2021/05/14 12:20:42;;;;;;;3.08;1.65;;;13.70;70.70;;;;;;5096994;28;20024;-69
2021/05/14 12:23:11;;;;;;;6.18;2.22;;;13.70;70.90;;;;;;5095285;28;20028;-69
2021/05/14 12:25:49;;;;;;;6.57;2.80;;;13.70;70.00;;;;;;5097790;28;20433;-69
2021/05/14 12:28:41;;;;;;;4.93;2.20;;;13.80;70.20;;;;;;5097133;28;20063;-69
2021/05/14 12:31:13;;;;;;;2.60;2.40;;;13.70;70.30;;;;;;5097055;28;20498;-69
2021/05/14 12:33:57;;;;;;;5.10;2.50;;;13.70;70.50;;;;;;5095383;28;20374;-70
2021/05/14 12:36:31;;;;;;;6.80;3.28;;;13.80;70.70;;;;;;5096434;28;20469;-69
2021/05/14 12:39:14;;;;;;;11.02;2.50;;;13.90;69.60;;;;;;5096332;28;20032;-69
2021/05/14 12:41:52;;;;;;;2.88;2.22;;;13.80;69.70;;;;;;5088847;28;20031;-69
2021/05/14 12:44:20;;;;;;;3.10;2.45;;;13.70;69.70;;;;;;5096916;28;20028;-69
2021/05/14 12:47:09;;;;;;;6.63;2.33;;;13.80;70.50;;;;;;5095266;28;20103;-70
2021/05/14 12:49:46;;;;;;;8.57;2.15;;;13.80;69.90;;;;;;5089882;28;20092;-68
2021/05/14 12:52:12;;;;;;;11.20;2.72;;;13.80;70.10;;;;;;5096579;28;20039;-69
2021/05/14 12:54:50;;;;;;;4.50;2.40;;;13.70;70.50;;;;;;5096758;28;20032;-70
2021/05/14 12:57:29;;;;;;;4.72;2.15;;;13.70;70.40;;;;;;5097895;28;20027;-70
2021/05/14 12:59:56;;;;;;;10.23;2.92;;;13.70;70.50;;;;;;5097404;28;20355;-69